Terminal Aerodrome Forecast
Issued by NWS Portland, OR

Home | Current Version | Previous Version | Text Only | Print | Product List | Glossary On
Versions: 1 2 3 4 5 6 7 8 9 10 11 12 13 14 15 16 17 18 19 20 21 22 23 24 25
000
FTUS46 KPQR 280520
TAFSLE
TAF
KSLE 280520Z 2806/2906 31006KT P6SM SKC
     FM280700 VRB03KT P6SM SKC
     FM282100 01012G18KT P6SM SKC
     FM290200 36008KT P6SM SKC=

USA.gov is the U.S. government's official web portal to all federal, state and local government web resources and services.